sensor_id;sensor_type;location;lat;lon;timestamp;pressure;altitude;pressure_sealevel;temperature;humidity
17635;BME280;8936;49.010;12.120;2022-10-31T00:00:06;98389.91;;;14.82;100.00
17635;BME280;8936;49.010;12.120;2022-10-31T00:02:34;98386.91;;;14.83;100.00
17635;BME280;8936;49.010;12.120;2022-10-31T00:05:00;98388.53;;;14.79;100.00
17635;BME280;8936;49.010;12.120;2022-10-31T00:07:26;98389.09;;;14.81;100.00
17635;BME280;8936;49.010;12.120;2022-10-31T00:09:53;98395.78;;;14.84;100.00
17635;BME280;8936;49.010;12.120;2022-10-31T00:12:20;98391.22;;;14.84;100.00
17635;BME280;8936;49.010;12.120;2022-10-31T00:14:46;98393.41;;;14.82;100.00
17635;BME280;8936;49.010;12.120;2022-10-31T00:17:13;98388.78;;;14.83;100.00
17635;BME280;8936;49.010;12.120;2022-10-31T00:19:39;98388.53;;;14.79;100.00
17635;BME280;8936;49.010;12.120;2022-10-31T00:22:05;98389.66;;;14.78;100.00
17635;BME280;8936;49.010;12.120;2022-10-31T00:24:32;98389.91;;;14.77;100.00
17635;BME280;8936;49.010;12.120;2022-10-31T00:26:58;98387.50;;;14.75;100.00
17635;BME280;8936;49.010;12.120;2022-10-31T00:29:26;98389.09;;;14.76;100.00
17635;BME280;8936;49.010;12.120;2022-10-31T00:31:52;98392.34;;;14.73;100.00
17635;BME280;8936;49.010;12.120;2022-10-31T00:34:18;98396.66;;;14.74;100.00
17635;BME280;8936;49.010;12.120;2022-10-31T00:36:45;98388.34;;;14.71;100.00
17635;BME280;8936;49.010;12.120;2022-10-31T00:39:11;98387.81;;;14.69;100.00
17635;BME280;8936;49.010;12.120;2022-10-31T00:41:37;98394.00;;;14.69;100.00
17635;BME280;8936;49.010;12.120;2022-10-31T00:44:04;98388.94;;;14.63;100.00
17635;BME280;8936;49.010;12.120;2022-10-31T00:46:31;98395.97;;;14.53;100.00
17635;BME280;8936;49.010;12.120;2022-10-31T00:48:58;98393.53;;;14.52;100.00
17635;BME280;8936;49.010;12.120;2022-10-31T00:51:24;98386.56;;;14.51;100.00
17635;BME280;8936;49.010;12.120;2022-10-31T00:53:50;98384.44;;;14.48;100.00
17635;BME280;8936;49.010;12.120;2022-10-31T00:56:17;98394.53;;;13.97;100.00
17635;BME280;8936;49.010;12.120;2022-10-31T00:58:43;98394.34;;;13.38;100.00
17635;BME280;8936;49.010;12.120;2022-10-31T01:01:09;98399.72;;;13.33;100.00
17635;BME280;8936;49.010;12.120;2022-10-31T01:03:37;98399.69;;;13.08;100.00
17635;BME280;8936;49.010;12.120;2022-10-31T01:06:05;98404.22;;;12.92;100.00
17635;BME280;8936;49.010;12.120;2022-10-31T01:08:32;98403.94;;;12.88;100.00
17635;BME280;8936;49.010;12.120;2022-10-31T01:11:02;98406.59;;;12.68;100.00
17635;BME280;8936;49.010;12.120;2022-10-31T01:13:29;98407.03;;;12.45;100.00
17635;BME280;8936;49.010;12.120;2022-10-31T01:15:56;98410.75;;;12.34;100.00
17635;BME280;8936;49.010;12.120;2022-10-31T01:18:22;98395.84;;;12.58;100.00
17635;BME280;8936;49.010;12.120;2022-10-31T01:20:57;98399.63;;;12.77;100.00
17635;BME280;8936;49.010;12.120;2022-10-31T01:23:24;98398.31;;;12.90;100.00
17635;BME280;8936;49.010;12.120;2022-10-31T01:25:58;98399.94;;;13.06;100.00
17635;BME280;8936;49.010;12.120;2022-10-31T01:28:24;98402.94;;;13.15;100.00
17635;BME280;8936;49.010;12.120;2022-10-31T01:30:50;98400.78;;;13.42;100.00
17635;BME280;8936;49.010;12.120;2022-10-31T01:33:17;98406.16;;;13.57;100.00
17635;BME280;8936;49.010;12.120;2022-10-31T01:35:43;98400.78;;;13.37;100.00
17635;BME280;8936;49.010;12.120;2022-10-31T01:38:11;98410.72;;;13.16;100.00
17635;BME280;8936;49.010;12.120;2022-10-31T01:40:37;98401.34;;;13.24;100.00
17635;BME280;8936;49.010;12.120;2022-10-31T01:43:03;98388.44;;;13.41;100.00
17635;BME280;8936;49.010;12.120;2022-10-31T01:45:30;98401.06;;;13.50;100.00
17635;BME280;8936;49.010;12.120;2022-10-31T01:47:56;98404.78;;;13.60;100.00
17635;BME280;8936;49.010;12.120;2022-10-31T01:50:25;98401.59;;;13.58;100.00
17635;BME280;8936;49.010;12.120;2022-10-31T01:52:53;98388.47;;;13.46;100.00
17635;BME280;8936;49.010;12.120;2022-10-31T01:55:22;98393.03;;;13.30;100.00
17635;BME280;8936;49.010;12.120;2022-10-31T01:57:51;98395.94;;;13.19;100.00
17635;BME280;8936;49.010;12.120;2022-10-31T02:00:18;98399.72;;;13.18;100.00
17635;BME280;8936;49.010;12.120;2022-10-31T02:02:45;98396.50;;;13.11;100.00
17635;BME280;8936;49.010;12.120;2022-10-31T02:05:12;98398.59;;;12.93;100.00
17635;BME280;8936;49.010;12.120;2022-10-31T02:07:42;98403.91;;;12.73;100.00
17635;BME280;8936;49.010;12.120;2022-10-31T02:10:09;98405.50;;;12.64;100.00
17635;BME280;8936;49.010;12.120;2022-10-31T02:12:37;98405.50;;;12.59;100.00
17635;BME280;8936;49.010;12.120;2022-10-31T02:15:04;98399.56;;;12.47;100.00
17635;BME280;8936;49.010;12.120;2022-10-31T02:17:31;98406.44;;;12.28;100.00
17635;BME280;8936;49.010;12.120;2022-10-31T02:20:00;98407.06;;;12.50;100.00
17635;BME280;8936;49.010;12.120;2022-10-31T02:22:32;98412.34;;;12.35;100.00
17635;BME280;8936;49.010;12.120;2022-10-31T02:25:08;98407.19;;;12.18;100.00
17635;BME280;8936;49.010;12.120;2022-10-31T02:27:51;98416.53;;;12.11;100.00
17635;BME280;8936;49.010;12.120;2022-10-31T02:30:22;98406.91;;;12.15;100.00
17635;BME280;8936;49.010;12.120;2022-10-31T02:32:56;98407.06;;;12.55;100.00
17635;BME280;8936;49.010;12.120;2022-10-31T02:35:28;98412.25;;;12.92;100.00
17635;BME280;8936;49.010;12.120;2022-10-31T02:38:00;98405.09;;;13.23;100.00
17635;BME280;8936;49.010;12.120;2022-10-31T02:40:30;98404.00;;;13.34;100.00
17635;BME280;8936;49.010;12.120;2022-10-31T02:42:59;98394.38;;;13.33;100.00
17635;BME280;8936;49.010;12.120;2022-10-31T02:45:28;98398.38;;;13.30;100.00
17635;BME280;8936;49.010;12.120;2022-10-31T02:47:58;98398.63;;;13.14;100.00
17635;BME280;8936;49.010;12.120;2022-10-31T02:50:27;98410.66;;;13.01;100.00
17635;BME280;8936;49.010;12.120;2022-10-31T02:52:54;98415.53;;;13.14;100.00
17635;BME280;8936;49.010;12.120;2022-10-31T02:58:06;98410.19;;;13.44;100.00
17635;BME280;8936;49.010;12.120;2022-10-31T03:00:36;98408.84;;;13.47;100.00
17635;BME280;8936;49.010;12.120;2022-10-31T03:03:06;98412.31;;;13.12;100.00
17635;BME280;8936;49.010;12.120;2022-10-31T03:05:40;98420.03;;;12.83;100.00
17635;BME280;8936;49.010;12.120;2022-10-31T03:08:09;98420.31;;;12.92;100.00
17635;BME280;8936;49.010;12.120;2022-10-31T03:10:38;98418.66;;;12.71;100.00
17635;BME280;8936;49.010;12.120;2022-10-31T03:13:08;98408.25;;;13.05;100.00
17635;BME280;8936;49.010;12.120;2022-10-31T03:15:36;98406.66;;;12.93;100.00
17635;BME280;8936;49.010;12.120;2022-10-31T03:18:04;98408.78;;;12.91;100.00
17635;BME280;8936;49.010;12.120;2022-10-31T03:20:34;98408.69;;;12.66;100.00
17635;BME280;8936;49.010;12.120;2022-10-31T03:23:02;98405.22;;;12.56;100.00
17635;BME280;8936;49.010;12.120;2022-10-31T03:25:30;98412.97;;;12.47;100.00
17635;BME280;8936;49.010;12.120;2022-10-31T03:27:57;98423.38;;;12.43;100.00
17635;BME280;8936;49.010;12.120;2022-10-31T03:30:25;98425.34;;;12.68;100.00
17635;BME280;8936;49.010;12.120;2022-10-31T03:32:52;98423.19;;;12.70;100.00
17635;BME280;8936;49.010;12.120;2022-10-31T03:35:20;98428.75;;;12.49;100.00
17635;BME280;8936;49.010;12.120;2022-10-31T03:37:50;98433.75;;;12.25;100.00
17635;BME280;8936;49.010;12.120;2022-10-31T03:40:19;98424.38;;;12.27;100.00
17635;BME280;8936;49.010;12.120;2022-10-31T03:42:50;98438.00;;;12.21;100.00
17635;BME280;8936;49.010;12.120;2022-10-31T03:45:19;98439.63;;;12.27;100.00
17635;BME280;8936;49.010;12.120;2022-10-31T03:47:47;98441.88;;;11.98;100.00
17635;BME280;8936;49.010;12.120;2022-10-31T03:50:14;98442.53;;;11.73;100.00
17635;BME280;8936;49.010;12.120;2022-10-31T03:52:41;98442.59;;;11.52;100.00
17635;BME280;8936;49.010;12.120;2022-10-31T03:55:15;98450.63;;;11.52;100.00
17635;BME280;8936;49.010;12.120;2022-10-31T03:57:43;98442.19;;;11.33;100.00
17635;BME280;8936;49.010;12.120;2022-10-31T04:00:12;98446.31;;;11.14;100.00
17635;BME280;8936;49.010;12.120;2022-10-31T04:02:40;98457.28;;;10.91;100.00
17635;BME280;8936;49.010;12.120;2022-10-31T04:05:07;98455.06;;;10.82;100.00
17635;BME280;8936;49.010;12.120;2022-10-31T04:07:36;98455.50;;;10.74;100.00
17635;BME280;8936;49.010;12.120;2022-10-31T04:10:04;98462.44;;;10.70;100.00
17635;BME280;8936;49.010;12.120;2022-10-31T04:12:34;98452.25;;;10.67;100.00
17635;BME280;8936;49.010;12.120;2022-10-31T04:15:02;98455.97;;;10.66;100.00
17635;BME280;8936;49.010;12.120;2022-10-31T04:17:29;98461.81;;;10.63;100.00
17635;BME280;8936;49.010;12.120;2022-10-31T04:19:58;98455.78;;;10.73;100.00
17635;BME280;8936;49.010;12.120;2022-10-31T04:22:25;98463.50;;;11.23;100.00
17635;BME280;8936;49.010;12.120;2022-10-31T04:24:51;98445.75;;;11.12;100.00
17635;BME280;8936;49.010;12.120;2022-10-31T04:27:17;98449.50;;;11.11;100.00
17635;BME280;8936;49.010;12.120;2022-10-31T04:29:45;98445.53;;;11.50;100.00
17635;BME280;8936;49.010;12.120;2022-10-31T04:32:11;98438.41;;;11.29;100.00
17635;BME280;8936;49.010;12.120;2022-10-31T04:34:38;98447.44;;;11.55;100.00
17635;BME280;8936;49.010;12.120;2022-10-31T04:37:04;98434.72;;;11.35;100.00
17635;BME280;8936;49.010;12.120;2022-10-31T04:39:30;98440.09;;;11.35;100.00
17635;BME280;8936;49.010;12.120;2022-10-31T04:41:57;98433.41;;;11.37;100.00
17635;BME280;8936;49.010;12.120;2022-10-31T04:44:23;98438.66;;;11.27;100.00
17635;BME280;8936;49.010;12.120;2022-10-31T04:46:51;98441.09;;;11.02;100.00
17635;BME280;8936;49.010;12.120;2022-10-31T04:49:17;98441.72;;;10.82;100.00
17635;BME280;8936;49.010;12.120;2022-10-31T04:51:43;98441.34;;;10.74;100.00
17635;BME280;8936;49.010;12.120;2022-10-31T04:54:10;98443.81;;;10.80;100.00
17635;BME280;8936;49.010;12.120;2022-10-31T04:56:36;98441.22;;;10.86;100.00
17635;BME280;8936;49.010;12.120;2022-10-31T04:59:02;98438.44;;;10.75;100.00
17635;BME280;8936;49.010;12.120;2022-10-31T05:01:29;98440.34;;;10.80;100.00
17635;BME280;8936;49.010;12.120;2022-10-31T05:03:56;98445.69;;;11.07;100.00
17635;BME280;8936;49.010;12.120;2022-10-31T05:06:23;98440.44;;;11.80;100.00
17635;BME280;8936;49.010;12.120;2022-10-31T05:08:49;98433.03;;;11.61;100.00
17635;BME280;8936;49.010;12.120;2022-10-31T05:11:15;98434.13;;;11.28;100.00
17635;BME280;8936;49.010;12.120;2022-10-31T05:13:42;98444.38;;;11.09;100.00
17635;BME280;8936;49.010;12.120;2022-10-31T05:16:08;98439.41;;;10.91;100.00
17635;BME280;8936;49.010;12.120;2022-10-31T05:18:34;98434.22;;;10.79;100.00
17635;BME280;8936;49.010;12.120;2022-10-31T05:21:02;98442.63;;;11.20;100.00
17635;BME280;8936;49.010;12.120;2022-10-31T05:23:28;98439.59;;;11.11;100.00
17635;BME280;8936;49.010;12.120;2022-10-31T05:25:54;98437.22;;;11.78;100.00
17635;BME280;8936;49.010;12.120;2022-10-31T05:28:21;98431.44;;;11.97;100.00
17635;BME280;8936;49.010;12.120;2022-10-31T05:30:47;98429.16;;;11.73;100.00
17635;BME280;8936;49.010;12.120;2022-10-31T05:33:13;98430.63;;;11.59;100.00
17635;BME280;8936;49.010;12.120;2022-10-31T05:35:40;98428.94;;;11.48;100.00
17635;BME280;8936;49.010;12.120;2022-10-31T05:38:07;98438.66;;;11.59;100.00
17635;BME280;8936;49.010;12.120;2022-10-31T05:40:34;98433.69;;;11.73;100.00
17635;BME280;8936;49.010;12.120;2022-10-31T05:43:00;98434.47;;;12.10;100.00
17635;BME280;8936;49.010;12.120;2022-10-31T05:45:27;98440.91;;;12.09;100.00
17635;BME280;8936;49.010;12.120;2022-10-31T05:47:53;98430.34;;;11.93;100.00
17635;BME280;8936;49.010;12.120;2022-10-31T05:50:20;98432.00;;;11.99;100.00
17635;BME280;8936;49.010;12.120;2022-10-31T05:52:47;98438.25;;;12.19;100.00
17635;BME280;8936;49.010;12.120;2022-10-31T05:55:15;98438.09;;;12.41;100.00
17635;BME280;8936;49.010;12.120;2022-10-31T05:57:41;98436.78;;;12.43;100.00
17635;BME280;8936;49.010;12.120;2022-10-31T06:00:08;98434.13;;;12.54;100.00
17635;BME280;8936;49.010;12.120;2022-10-31T06:02:35;98442.72;;;12.61;100.00
17635;BME280;8936;49.010;12.120;2022-10-31T06:05:01;98439.81;;;12.67;100.00
17635;BME280;8936;49.010;12.120;2022-10-31T06:07:31;98443.03;;;12.74;100.00
17635;BME280;8936;49.010;12.120;2022-10-31T06:09:57;98441.94;;;12.65;100.00
17635;BME280;8936;49.010;12.120;2022-10-31T06:12:25;98446.22;;;12.66;100.00
17635;BME280;8936;49.010;12.120;2022-10-31T06:14:51;98443.00;;;12.59;100.00
17635;BME280;8936;49.010;12.120;2022-10-31T06:17:18;98445.97;;;12.68;100.00
17635;BME280;8936;49.010;12.120;2022-10-31T06:19:44;98452.63;;;12.55;100.00
17635;BME280;8936;49.010;12.120;2022-10-31T06:22:10;98459.25;;;12.37;100.00
17635;BME280;8936;49.010;12.120;2022-10-31T06:24:37;98455.84;;;12.00;100.00
17635;BME280;8936;49.010;12.120;2022-10-31T06:27:04;98445.56;;;11.82;100.00
17635;BME280;8936;49.010;12.120;2022-10-31T06:29:31;98458.50;;;11.63;100.00
17635;BME280;8936;49.010;12.120;2022-10-31T06:31:58;98457.81;;;11.78;100.00
17635;BME280;8936;49.010;12.120;2022-10-31T06:34:24;98455.88;;;12.10;100.00
17635;BME280;8936;49.010;12.120;2022-10-31T06:36:50;98452.66;;;12.08;100.00
17635;BME280;8936;49.010;12.120;2022-10-31T06:39:17;98458.16;;;11.91;100.00
17635;BME280;8936;49.010;12.120;2022-10-31T06:41:43;98456.09;;;11.99;100.00
17635;BME280;8936;49.010;12.120;2022-10-31T06:44:09;98457.63;;;11.89;100.00
17635;BME280;8936;49.010;12.120;2022-10-31T06:46:37;98458.63;;;11.47;100.00
17635;BME280;8936;49.010;12.120;2022-10-31T06:49:03;98463.88;;;11.05;100.00
17635;BME280;8936;49.010;12.120;2022-10-31T06:51:30;98475.47;;;11.20;100.00
17635;BME280;8936;49.010;12.120;2022-10-31T06:53:56;98477.50;;;11.08;100.00
17635;BME280;8936;49.010;12.120;2022-10-31T06:56:22;98470.97;;;10.94;100.00
17635;BME280;8936;49.010;12.120;2022-10-31T06:58:49;98470.81;;;10.79;100.00
17635;BME280;8936;49.010;12.120;2022-10-31T07:01:15;98475.84;;;10.75;100.00
17635;BME280;8936;49.010;12.120;2022-10-31T07:03:43;98479.44;;;11.13;100.00
17635;BME280;8936;49.010;12.120;2022-10-31T07:06:09;98482.16;;;11.18;100.00
17635;BME280;8936;49.010;12.120;2022-10-31T07:08:35;98475.28;;;11.27;100.00
17635;BME280;8936;49.010;12.120;2022-10-31T07:11:02;98472.38;;;11.28;100.00
17635;BME280;8936;49.010;12.120;2022-10-31T07:13:28;98486.84;;;11.06;100.00
17635;BME280;8936;49.010;12.120;2022-10-31T07:15:58;98480.06;;;11.20;100.00
17635;BME280;8936;49.010;12.120;2022-10-31T07:18:25;98482.56;;;11.05;100.00
17635;BME280;8936;49.010;12.120;2022-10-31T07:20:53;98488.63;;;10.73;100.00
17635;BME280;8936;49.010;12.120;2022-10-31T07:23:19;98489.44;;;10.52;100.00
17635;BME280;8936;49.010;12.120;2022-10-31T07:25:46;98484.34;;;10.51;100.00
17635;BME280;8936;49.010;12.120;2022-10-31T07:28:12;98491.22;;;10.47;100.00
17635;BME280;8936;49.010;12.120;2022-10-31T07:30:38;98485.50;;;10.81;100.00
17635;BME280;8936;49.010;12.120;2022-10-31T07:33:05;98486.28;;;11.04;100.00
17635;BME280;8936;49.010;12.120;2022-10-31T07:35:32;98484.13;;;11.01;100.00
17635;BME280;8936;49.010;12.120;2022-10-31T07:38:07;98482.66;;;10.88;100.00
17635;BME280;8936;49.010;12.120;2022-10-31T07:40:33;98484.97;;;10.79;100.00
17635;BME280;8936;49.010;12.120;2022-10-31T07:43:00;98480.13;;;10.76;100.00
17635;BME280;8936;49.010;12.120;2022-10-31T07:45:26;98483.78;;;10.70;100.00
17635;BME280;8936;49.010;12.120;2022-10-31T07:47:52;98479.63;;;10.79;100.00
17635;BME280;8936;49.010;12.120;2022-10-31T07:50:19;98482.66;;;10.88;100.00
17635;BME280;8936;49.010;12.120;2022-10-31T07:52:46;98478.63;;;10.86;100.00
17635;BME280;8936;49.010;12.120;2022-10-31T07:55:14;98481.03;;;10.65;100.00
17635;BME280;8936;49.010;12.120;2022-10-31T07:57:40;98482.50;;;10.73;100.00
17635;BME280;8936;49.010;12.120;2022-10-31T08:00:07;98486.69;;;10.69;100.00
17635;BME280;8936;49.010;12.120;2022-10-31T08:02:34;98483.66;;;10.39;100.00
17635;BME280;8936;49.010;12.120;2022-10-31T08:05:01;98477.38;;;10.50;100.00
17635;BME280;8936;49.010;12.120;2022-10-31T08:07:27;98480.81;;;10.45;100.00
17635;BME280;8936;49.010;12.120;2022-10-31T08:09:54;98472.81;;;10.45;100.00
17635;BME280;8936;49.010;12.120;2022-10-31T08:12:22;98478.97;;;10.46;100.00
17635;BME280;8936;49.010;12.120;2022-10-31T08:14:48;98479.13;;;10.39;100.00
17635;BME280;8936;49.010;12.120;2022-10-31T08:17:14;98477.19;;;10.56;100.00
17635;BME280;8936;49.010;12.120;2022-10-31T08:19:41;98476.88;;;10.74;100.00
17635;BME280;8936;49.010;12.120;2022-10-31T08:22:07;98467.78;;;10.70;100.00
17635;BME280;8936;49.010;12.120;2022-10-31T08:24:33;98468.31;;;10.99;100.00
17635;BME280;8936;49.010;12.120;2022-10-31T08:27:00;98462.25;;;11.04;100.00
17635;BME280;8936;49.010;12.120;2022-10-31T08:29:27;98460.28;;;10.94;100.00
17635;BME280;8936;49.010;12.120;2022-10-31T08:31:54;98457.69;;;10.77;100.00
17635;BME280;8936;49.010;12.120;2022-10-31T08:34:20;98458.13;;;10.69;100.00
17635;BME280;8936;49.010;12.120;2022-10-31T08:36:46;98453.53;;;10.65;100.00
17635;BME280;8936;49.010;12.120;2022-10-31T08:39:12;98453.28;;;10.66;100.00
17635;BME280;8936;49.010;12.120;2022-10-31T08:41:39;98444.44;;;10.88;100.00
17635;BME280;8936;49.010;12.120;2022-10-31T08:44:05;98446.13;;;10.99;100.00
17635;BME280;8936;49.010;12.120;2022-10-31T08:46:33;98443.81;;;10.80;100.00
17635;BME280;8936;49.010;12.120;2022-10-31T08:48:59;98440.09;;;10.81;100.00
17635;BME280;8936;49.010;12.120;2022-10-31T08:51:25;98442.06;;;10.91;100.00
17635;BME280;8936;49.010;12.120;2022-10-31T08:53:52;98434.72;;;10.76;100.00
17635;BME280;8936;49.010;12.120;2022-10-31T08:56:18;98445.28;;;10.66;100.00
17635;BME280;8936;49.010;12.120;2022-10-31T08:58:44;98443.88;;;10.86;100.00
17635;BME280;8936;49.010;12.120;2022-10-31T09:01:11;98441.22;;;10.86;100.00
17635;BME280;8936;49.010;12.120;2022-10-31T09:03:38;98437.03;;;10.95;100.00
17635;BME280;8936;49.010;12.120;2022-10-31T09:06:05;98436.31;;;11.04;100.00
17635;BME280;8936;49.010;12.120;2022-10-31T09:08:33;98437.63;;;11.02;100.00
17635;BME280;8936;49.010;12.120;2022-10-31T09:11:00;98440.88;;;11.04;100.00
17635;BME280;8936;49.010;12.120;2022-10-31T09:13:26;98438.69;;;11.01;100.00
17635;BME280;8936;49.010;12.120;2022-10-31T09:15:53;98440.59;;;11.05;100.00
17635;BME280;8936;49.010;12.120;2022-10-31T09:18:20;98429.78;;;11.22;100.00
17635;BME280;8936;49.010;12.120;2022-10-31T09:20:48;98434.00;;;11.45;100.00
17635;BME280;8936;49.010;12.120;2022-10-31T09:23:15;98430.34;;;11.56;100.00
17635;BME280;8936;49.010;12.120;2022-10-31T09:25:42;98431.06;;;11.78;100.00
17635;BME280;8936;49.010;12.120;2022-10-31T09:28:10;98429.03;;;11.95;100.00
17635;BME280;8936;49.010;12.120;2022-10-31T09:30:36;98423.75;;;11.68;100.00
17635;BME280;8936;49.010;12.120;2022-10-31T09:33:03;98425.00;;;11.56;100.00
17635;BME280;8936;49.010;12.120;2022-10-31T09:35:30;98428.94;;;11.48;100.00
17635;BME280;8936;49.010;12.120;2022-10-31T09:37:58;98427.53;;;11.35;100.00
17635;BME280;8936;49.010;12.120;2022-10-31T09:40:31;98423.47;;;11.33;100.00
17635;BME280;8936;49.010;12.120;2022-10-31T09:43:00;98422.50;;;11.44;100.00
17635;BME280;8936;49.010;12.120;2022-10-31T09:45:30;98418.09;;;11.65;100.00
17635;BME280;8936;49.010;12.120;2022-10-31T09:48:17;98421.13;;;11.73;100.00
17635;BME280;8936;49.010;12.120;2022-10-31T09:50:48;98421.81;;;11.64;100.00
17635;BME280;8936;49.010;12.120;2022-10-31T09:53:19;98419.91;;;11.54;100.00
17635;BME280;8936;49.010;12.120;2022-10-31T09:55:49;98416.53;;;11.69;100.00
17635;BME280;8936;49.010;12.120;2022-10-31T09:58:16;98421.72;;;11.80;100.00
17635;BME280;8936;49.010;12.120;2022-10-31T10:00:44;98422.00;;;11.79;100.00
17635;BME280;8936;49.010;12.120;2022-10-31T10:03:13;98413.38;;;11.72;100.00
17635;BME280;8936;49.010;12.120;2022-10-31T10:05:46;98425.44;;;11.79;100.00
17635;BME280;8936;49.010;12.120;2022-10-31T10:08:19;98419.31;;;11.79;100.00
17635;BME280;8936;49.010;12.120;2022-10-31T10:10:48;98422.53;;;11.81;100.00
17635;BME280;8936;49.010;12.120;2022-10-31T10:13:26;98412.13;;;11.89;100.00
17635;BME280;8936;49.010;12.120;2022-10-31T10:16:07;98409.81;;;12.03;100.00
17635;BME280;8936;49.010;12.120;2022-10-31T10:18:38;98403.59;;;11.98;100.00
17635;BME280;8936;49.010;12.120;2022-10-31T10:21:10;98400.88;;;11.87;100.00
17635;BME280;8936;49.010;12.120;2022-10-31T10:23:45;98398.16;;;11.82;100.00
17635;BME280;8936;49.010;12.120;2022-10-31T10:26:16;98389.53;;;11.70;100.00
17635;BME280;8936;49.010;12.120;2022-10-31T10:28:43;98401.34;;;11.74;100.00
17635;BME280;8936;49.010;12.120;2022-10-31T10:31:11;98400.31;;;11.80;100.00
17635;BME280;8936;49.010;12.120;2022-10-31T10:33:41;98395.53;;;11.87;100.00
17635;BME280;8936;49.010;12.120;2022-10-31T10:36:11;98395.81;;;11.91;100.00
17635;BME280;8936;49.010;12.120;2022-10-31T10:38:42;98399.84;;;11.94;100.00
17635;BME280;8936;49.010;12.120;2022-10-31T10:41:14;98391.78;;;11.88;100.00
17635;BME280;8936;49.010;12.120;2022-10-31T10:43:42;98383.22;;;11.91;100.00
17635;BME280;8936;49.010;12.120;2022-10-31T10:46:18;98389.69;;;11.96;100.00
17635;BME280;8936;49.010;12.120;2022-10-31T10:51:50;98376.66;;;12.09;100.00
17635;BME280;8936;49.010;12.120;2022-10-31T10:54:24;98376.94;;;12.18;100.00
17635;BME280;8936;49.010;12.120;2022-10-31T10:56:57;98374.97;;;11.98;100.00
17635;BME280;8936;49.010;12.120;2022-10-31T10:59:26;98371.53;;;12.03;100.00
17635;BME280;8936;49.010;12.120;2022-10-31T11:01:53;98376.88;;;12.03;100.00
17635;BME280;8936;49.010;12.120;2022-10-31T11:04:24;98375.84;;;12.14;100.00
17635;BME280;8936;49.010;12.120;2022-10-31T11:07:01;98364.91;;;12.20;100.00
17635;BME280;8936;49.010;12.120;2022-10-31T11:09:27;98356.84;;;12.15;100.00
17635;BME280;8936;49.010;12.120;2022-10-31T11:11:55;98362.53;;;12.34;100.00
17635;BME280;8936;49.010;12.120;2022-10-31T11:14:22;98351.84;;;12.44;100.00
17635;BME280;8936;49.010;12.120;2022-10-31T11:16:50;98346.50;;;12.54;100.00
17635;BME280;8936;49.010;12.120;2022-10-31T11:19:19;98345.97;;;12.52;100.00
17635;BME280;8936;49.010;12.120;2022-10-31T11:21:46;98342.78;;;12.55;100.00
17635;BME280;8936;49.010;12.120;2022-10-31T11:24:14;98342.28;;;12.68;100.00
17635;BME280;8936;49.010;12.120;2022-10-31T11:26:40;98334.22;;;12.78;100.00
17635;BME280;8936;49.010;12.120;2022-10-31T11:29:12;98334.25;;;12.88;100.00
17635;BME280;8936;49.010;12.120;2022-10-31T11:31:40;98329.69;;;12.94;100.00
17635;BME280;8936;49.010;12.120;2022-10-31T11:34:12;98321.38;;;12.85;100.00
17635;BME280;8936;49.010;12.120;2022-10-31T11:36:42;98316.28;;;12.89;100.00
17635;BME280;8936;49.010;12.120;2022-10-31T11:39:13;98314.66;;;12.88;100.00
17635;BME280;8936;49.010;12.120;2022-10-31T11:41:41;98307.16;;;12.70;100.00
17635;BME280;8936;49.010;12.120;2022-10-31T11:44:10;98307.16;;;12.80;100.00
17635;BME280;8936;49.010;12.120;2022-10-31T11:46:40;98304.75;;;12.68;100.00
17635;BME280;8936;49.010;12.120;2022-10-31T11:49:11;98304.75;;;12.88;100.00
17635;BME280;8936;49.010;12.120;2022-10-31T11:51:39;98296.19;;;12.91;100.00
17635;BME280;8936;49.010;12.120;2022-10-31T11:54:05;98299.94;;;13.00;100.00
17635;BME280;8936;49.010;12.120;2022-10-31T11:56:41;98297.81;;;13.18;100.00
17635;BME280;8936;49.010;12.120;2022-10-31T11:59:18;98290.25;;;13.35;100.00
17635;BME280;8936;49.010;12.120;2022-10-31T12:01:49;98289.72;;;13.43;100.00
17635;BME280;8936;49.010;12.120;2022-10-31T12:04:15;98284.66;;;13.36;100.00
17635;BME280;8936;49.010;12.120;2022-10-31T12:06:42;98289.75;;;13.33;100.00
17635;BME280;8936;49.010;12.120;2022-10-31T12:09:23;98285.19;;;13.33;100.00
17635;BME280;8936;49.010;12.120;2022-10-31T12:11:52;98276.84;;;13.35;100.00
17635;BME280;8936;49.010;12.120;2022-10-31T12:14:26;98271.75;;;13.28;100.00
17635;BME280;8936;49.010;12.120;2022-10-31T12:16:59;98274.72;;;13.32;100.00
17635;BME280;8936;49.010;12.120;2022-10-31T12:19:31;98265.34;;;13.29;100.00
17635;BME280;8936;49.010;12.120;2022-10-31T12:22:02;98266.13;;;13.35;100.00
17635;BME280;8936;49.010;12.120;2022-10-31T12:24:35;98267.19;;;13.39;100.00
17635;BME280;8936;49.010;12.120;2022-10-31T12:27:07;98259.97;;;13.39;100.00
17635;BME280;8936;49.010;12.120;2022-10-31T12:29:42;98249.50;;;13.43;100.00
17635;BME280;8936;49.010;12.120;2022-10-31T12:32:22;98253.50;;;13.45;100.00
17635;BME280;8936;49.010;12.120;2022-10-31T12:35:01;98253.22;;;13.37;100.00
17635;BME280;8936;49.010;12.120;2022-10-31T12:37:34;98238.22;;;13.36;100.00
17635;BME280;8936;49.010;12.120;2022-10-31T12:40:11;98243.03;;;13.34;100.00
17635;BME280;8936;49.010;12.120;2022-10-31T12:42:49;98236.88;;;13.38;100.00
17635;BME280;8936;49.010;12.120;2022-10-31T12:45:26;98232.66;;;13.17;100.00
17635;BME280;8936;49.010;12.120;2022-10-31T12:48:00;98234.25;;;13.23;100.00
17635;BME280;8936;49.010;12.120;2022-10-31T12:50:31;98232.03;;;13.40;100.00
17635;BME280;8936;49.010;12.120;2022-10-31T12:53:02;98236.59;;;13.45;100.00
17635;BME280;8936;49.010;12.120;2022-10-31T12:55:37;98220.81;;;13.33;100.00
17635;BME280;8936;49.010;12.120;2022-10-31T12:58:07;98211.38;;;13.46;100.00
17635;BME280;8936;49.010;12.120;2022-10-31T13:00:36;98211.91;;;13.48;100.00